createdAt,value
2019-02-23T00:00:40.142Z,104492.70
2019-02-23T00:05:42.816Z,104489.03
2019-02-23T00:10:45.518Z,104476.25
2019-02-23T00:15:48.185Z,104451.39
2019-02-23T00:20:50.854Z,104463.80
2019-02-23T00:25:53.501Z,104480.97
2019-02-23T00:30:56.150Z,104491.63
2019-02-23T00:35:58.824Z,104481.93
2019-02-23T00:41:01.484Z,104455.89
2019-02-23T00:46:04.162Z,104454.39
2019-02-23T00:51:06.967Z,104453.48
2019-02-23T00:56:09.620Z,104459.98
2019-02-23T01:01:12.288Z,104450.34
2019-02-23T01:06:15.000Z,104451.38
2019-02-23T01:11:17.656Z,104459.58
2019-02-23T01:21:22.111Z,104462.28
2019-02-23T01:26:24.794Z,104453.14
2019-02-23T01:31:27.456Z,104454.10
2019-02-23T01:36:30.128Z,104449.58
2019-02-23T01:41:32.864Z,104439.03
2019-02-23T01:46:35.538Z,104433.09
2019-02-23T01:51:38.201Z,104427.05
2019-02-23T01:56:40.872Z,104417.84
2019-02-23T02:01:43.522Z,104409.95
2019-02-23T02:06:46.214Z,104404.90
2019-02-23T02:11:48.860Z,104402.59
2019-02-23T02:16:51.519Z,104414.11
2019-02-23T02:21:54.277Z,104415.61
2019-02-23T02:26:56.940Z,104419.80
2019-02-23T02:31:59.625Z,104411.48
2019-02-23T02:37:02.304Z,104412.36
2019-02-23T02:42:04.950Z,104419.91
2019-02-23T02:47:07.627Z,104409.30
2019-02-23T02:52:10.270Z,104400.15
2019-02-23T02:57:12.939Z,104427.91
2019-02-23T03:02:15.584Z,104439.58
2019-02-23T03:07:18.252Z,104448.26
2019-02-23T03:12:20.960Z,104456.20
2019-02-23T03:17:23.608Z,104453.91
2019-02-23T03:22:26.276Z,104457.18
2019-02-23T03:27:28.948Z,104465.60
2019-02-23T03:32:31.627Z,104473.91
2019-02-23T03:37:34.296Z,104476.26
2019-02-23T03:42:36.991Z,104462.88
2019-02-23T03:47:39.667Z,104480.04
2019-02-23T03:52:42.341Z,104483.77
2019-02-23T03:57:45.019Z,104475.45
2019-02-23T04:02:47.663Z,104464.91
2019-02-23T04:07:50.331Z,104439.58
2019-02-23T04:12:53.014Z,104439.69
2019-02-23T04:17:55.671Z,104428.30
2019-02-23T04:22:58.319Z,104426.14
2019-02-23T04:28:01.135Z,104429.26
2019-02-23T04:33:03.851Z,104425.05
2019-02-23T04:38:06.530Z,104418.12
2019-02-23T04:43:09.207Z,104425.11
2019-02-23T04:48:11.878Z,104425.59
2019-02-23T04:53:14.557Z,104427.34
2019-02-23T04:58:17.229Z,104436.72
2019-02-23T05:03:19.907Z,104423.30
2019-02-23T05:08:22.642Z,104443.05
2019-02-23T05:13:25.328Z,104459.19
2019-02-23T05:18:28.004Z,104456.10
2019-02-23T05:23:30.759Z,104467.55
2019-02-23T05:28:33.495Z,104462.14
2019-02-23T05:33:36.156Z,104436.73
2019-02-23T05:38:38.821Z,104413.20
2019-02-23T05:43:41.492Z,104443.58
2019-02-23T05:48:44.151Z,104426.19
2019-02-23T05:53:46.855Z,104407.30
2019-02-23T05:58:49.535Z,104399.47
2019-02-23T06:03:52.193Z,104405.11
2019-02-23T06:08:54.859Z,104400.11
2019-02-23T06:13:57.524Z,104411.50
2019-02-23T06:19:00.233Z,104410.39
2019-02-23T06:24:02.911Z,104410.22
2019-02-23T06:29:05.599Z,104404.80
2019-02-23T06:34:16.165Z,104409.32
2019-02-23T06:39:12.635Z,104415.92
2019-02-23T06:44:15.343Z,104428.70
2019-02-23T06:49:17.992Z,104405.16
2019-02-23T06:54:20.785Z,104362.84
2019-02-23T06:59:23.583Z,104363.70
2019-02-23T07:04:26.350Z,104352.25
2019-02-23T07:09:29.156Z,104356.85
2019-02-23T07:14:32.319Z,104362.44
2019-02-23T07:19:35.108Z,104345.78
2019-02-23T07:24:37.902Z,104342.56
2019-02-23T07:29:40.685Z,104350.76
2019-02-23T07:34:43.469Z,104379.47
2019-02-23T07:39:46.330Z,104390.06
2019-02-23T07:44:49.118Z,104394.09
2019-02-23T07:49:51.900Z,104392.41
2019-02-23T07:54:54.689Z,104392.23
2019-02-23T07:59:57.484Z,104386.16
2019-02-23T08:05:00.330Z,104396.98
2019-02-23T08:10:03.145Z,104406.13
2019-02-23T08:15:07.612Z,104378.09
2019-02-23T08:20:13.473Z,104365.50
2019-02-23T08:25:16.273Z,104356.83
2019-02-23T08:30:19.033Z,104359.55
2019-02-23T08:35:21.820Z,104371.15
2019-02-23T08:40:24.628Z,104364.59
2019-02-23T08:45:27.487Z,104352.70
2019-02-23T08:50:30.330Z,104342.51
2019-02-23T08:55:33.105Z,104321.94
2019-02-23T09:00:35.961Z,104308.27
2019-02-23T09:05:38.798Z,104313.75
2019-02-23T09:10:41.584Z,104305.56
2019-02-23T09:15:44.375Z,104329.17
2019-02-23T09:20:47.278Z,104336.47
2019-02-23T09:25:50.064Z,104323.27
2019-02-23T09:30:52.856Z,104324.72
2019-02-23T09:35:55.636Z,104321.16
2019-02-23T09:40:58.416Z,104328.92
2019-02-23T09:46:01.181Z,104346.66
2019-02-23T09:51:04.048Z,104367.86
2019-02-23T09:56:06.825Z,104348.87
2019-02-23T10:01:09.607Z,104344.65
2019-02-23T10:06:12.405Z,104344.55
2019-02-23T10:11:15.172Z,104330.97
2019-02-23T10:16:17.939Z,104317.45
2019-02-23T10:21:20.724Z,104313.92
2019-02-23T10:26:23.528Z,104312.20
2019-02-23T10:31:26.316Z,104322.49
2019-02-23T10:36:29.096Z,104314.37
2019-02-23T10:41:31.878Z,104317.19
2019-02-23T10:46:34.664Z,104316.16
2019-02-23T10:51:37.527Z,104311.81
2019-02-23T10:56:40.407Z,104318.34
2019-02-23T11:01:43.204Z,104310.53
2019-02-23T11:06:46.010Z,104308.08
2019-02-23T11:11:48.815Z,104295.82
2019-02-23T11:16:51.664Z,104292.25
2019-02-23T11:21:54.537Z,104290.44
2019-02-23T11:26:57.304Z,104302.17
2019-02-23T11:32:00.098Z,104297.05
2019-02-23T11:37:02.879Z,104296.88
2019-02-23T11:42:05.686Z,104288.56
2019-02-23T11:47:08.516Z,104290.59
2019-02-23T11:52:11.300Z,104289.21
2019-02-23T11:57:14.087Z,104276.83
2019-02-23T12:02:16.848Z,104275.50
2019-02-23T12:07:19.638Z,104269.34
2019-02-23T12:12:22.440Z,104279.61
2019-02-23T12:17:25.227Z,104272.77
2019-02-23T12:22:28.044Z,104273.02
2019-02-23T12:27:30.828Z,104275.52
2019-02-23T12:32:33.691Z,104259.11
2019-02-23T12:37:36.492Z,104266.25
2019-02-23T12:42:39.357Z,104276.91
2019-02-23T12:47:42.208Z,104259.28
2019-02-23T12:52:44.995Z,104252.33
2019-02-23T12:57:47.777Z,104249.89
2019-02-23T13:02:50.668Z,104257.35
2019-02-23T13:07:53.528Z,104240.94
2019-02-23T13:13:00.801Z,104231.39
2019-02-23T13:18:11.172Z,104230.45
2019-02-23T13:23:24.687Z,104224.08
2019-02-23T13:28:28.993Z,104221.81
2019-02-23T13:33:39.067Z,104208.64
2019-02-23T13:38:49.271Z,104213.61
2019-02-23T13:44:05.307Z,104205.23
2019-02-23T13:49:19.322Z,104192.64
2019-02-23T13:54:26.389Z,104199.37
2019-02-23T13:59:52.801Z,104203.31
2019-02-23T14:05:06.213Z,104206.73
2019-02-23T14:10:25.885Z,104204.34
2019-02-23T14:15:45.199Z,104189.67
2019-02-23T14:20:49.483Z,104184.36
2019-02-23T14:26:03.180Z,104185.09
2019-02-23T14:31:10.395Z,104172.26
2019-02-23T14:36:26.969Z,104161.34
2019-02-23T14:41:31.268Z,104153.68
2019-02-23T14:46:41.809Z,104141.64
2019-02-23T14:51:46.101Z,104126.72
2019-02-23T14:56:53.478Z,104124.30
2019-02-23T15:02:00.563Z,104116.84
2019-02-23T15:07:21.268Z,104106.70
2019-02-23T15:12:25.545Z,104095.98
2019-02-23T15:17:29.829Z,104095.88
2019-02-23T15:22:40.105Z,104100.36
2019-02-23T15:27:44.380Z,104084.16
2019-02-23T15:33:05.559Z,104080.34
2019-02-23T15:38:25.128Z,104075.23
2019-02-23T15:43:32.207Z,104069.30
2019-02-23T15:48:48.394Z,104070.78
2019-02-23T15:53:51.243Z,104069.03
2019-02-23T15:58:53.976Z,104065.07
2019-02-23T16:03:56.770Z,104064.55
2019-02-23T16:08:59.554Z,104065.06
2019-02-23T16:14:02.521Z,104060.77
2019-02-23T16:19:05.257Z,104063.52
2019-02-23T16:24:08.129Z,104060.68
2019-02-23T16:29:11.095Z,104063.39
2019-02-23T16:34:13.894Z,104058.31
2019-02-23T16:39:16.741Z,104048.50
2019-02-23T16:44:19.529Z,104046.45
2019-02-23T16:49:22.311Z,104045.85
2019-02-23T16:54:25.086Z,104040.91
2019-02-23T16:59:27.875Z,104032.94
2019-02-23T17:04:30.645Z,104038.44
2019-02-23T17:09:33.528Z,104024.09
2019-02-23T17:14:36.348Z,104020.20
2019-02-23T17:19:39.162Z,104014.22
2019-02-23T17:24:41.900Z,104018.64
2019-02-23T17:29:44.700Z,104011.27
2019-02-23T17:34:47.480Z,104011.61
2019-02-23T17:39:50.248Z,104007.80
2019-02-23T17:44:53.105Z,103991.31
2019-02-23T17:49:55.896Z,103987.41
2019-02-23T17:54:58.679Z,103981.78
2019-02-23T18:00:01.515Z,103980.78
2019-02-23T18:05:05.144Z,103984.45
2019-02-23T18:10:08.098Z,103978.45
2019-02-23T18:15:11.067Z,103986.52
2019-02-23T18:20:14.005Z,103977.45
2019-02-23T18:25:16.783Z,103972.69
2019-02-23T18:30:19.633Z,103954.50
2019-02-23T18:35:22.412Z,103938.92
2019-02-23T18:40:25.205Z,103935.94
2019-02-23T18:45:28.036Z,103942.78
2019-02-23T18:50:30.823Z,103945.11
2019-02-23T18:55:40.901Z,103930.69
2019-02-23T19:00:38.173Z,103933.40
2019-02-23T19:05:49.449Z,103931.48
2019-02-23T19:10:45.648Z,103923.53
2019-02-23T19:15:48.559Z,103915.42
2019-02-23T19:20:51.327Z,103905.07
2019-02-23T19:25:54.160Z,103910.80
2019-02-23T19:30:56.923Z,103913.88
2019-02-23T19:35:59.711Z,103896.74
2019-02-23T19:41:02.967Z,103900.78
2019-02-23T19:46:05.760Z,103887.03
2019-02-23T19:51:09.096Z,103884.70
2019-02-23T19:56:11.881Z,103883.27
2019-02-23T20:01:17.555Z,103878.59
2019-02-23T20:06:20.350Z,103874.37
2019-02-23T20:11:23.204Z,103871.61
2019-02-23T20:16:26.000Z,103868.01
2019-02-23T20:21:28.787Z,103869.41
2019-02-23T20:26:31.556Z,103877.26
2019-02-23T20:31:34.360Z,103881.59
2019-02-23T20:36:37.230Z,103895.33
2019-02-23T20:41:40.016Z,103893.23
2019-02-23T20:46:42.804Z,103887.45
2019-02-23T20:51:45.603Z,103883.58
2019-02-23T20:56:48.395Z,103880.77
2019-02-23T21:01:51.187Z,103883.95
2019-02-23T21:06:53.990Z,103874.70
2019-02-23T21:11:56.779Z,103867.73
2019-02-23T21:16:59.592Z,103874.31
2019-02-23T21:22:02.412Z,103877.23
2019-02-23T21:27:12.801Z,103859.67
2019-02-23T21:32:09.675Z,103865.19
2019-02-23T21:37:12.475Z,103859.00
2019-02-23T21:42:16.254Z,103863.62
2019-02-23T21:47:19.053Z,103845.31
2019-02-23T21:52:21.862Z,103850.23
2019-02-23T21:57:24.648Z,103834.94
2019-02-23T22:02:27.445Z,103848.85
2019-02-23T22:07:30.255Z,103849.64
2019-02-23T22:12:33.066Z,103857.25
2019-02-23T22:17:36.531Z,103854.73
2019-02-23T22:22:39.341Z,103848.56
2019-02-23T22:27:42.137Z,103857.45
2019-02-23T22:32:44.949Z,103848.15
2019-02-23T22:37:47.726Z,103861.64
2019-02-23T22:42:50.560Z,103857.33
2019-02-23T22:47:53.328Z,103833.30
2019-02-23T22:52:56.110Z,103846.63
2019-02-23T22:57:58.896Z,103829.90
2019-02-23T23:03:01.684Z,103800.55
2019-02-23T23:08:04.544Z,103788.27
2019-02-23T23:13:07.330Z,103784.61
2019-02-23T23:18:10.096Z,103795.34
2019-02-23T23:23:12.883Z,103775.17
2019-02-23T23:28:15.644Z,103784.41
2019-02-23T23:33:18.407Z,103800.19
2019-02-23T23:38:21.192Z,103809.55
2019-02-23T23:43:23.980Z,103803.84
2019-02-23T23:48:28.668Z,103799.36
2019-02-23T23:53:31.199Z,103795.23
2019-02-23T23:58:33.973Z,103791.09
